KFET/FET METAR and TAF weather

Enter ICAO airport designator
Station Type Date Time Source
KFET METAR 2021/06/22 23:35 UTC NOAA

KFET 222335Z AUTO 20009KT 10SM CLR 30/11 A2973 RMK AO2 LTG DSNT NW T02950107


Station Type Date Time Source
KFET Decoded METAR 2021/06/22 23:35 UTC NOAA

Fremont Municipal Airport, NE, United States (KFET) 41-27N 096-31W
Jun 22, 2021 - 07:35 PM EDT / 2021.06.22 2335 UTC
Wind: from the SSW (200 degrees) at 10 MPH (9 KT):0
Visibility: 10 mile(s):0
Sky conditions: clear
Weather: Lightning observed
Temperature: 85.1 F (29.5 C)
Dew Point: 51.3 F (10.7 C)
Relative Humidity: 31%
Pressure (altimeter): 29.73 in. Hg (1006 hPa)
ob: KFET 222335Z AUTO 20009KT 10SM CLR 30/11 A2973 RMK AO2 LTG DSNT NW T02950107
cycle: 23

Station Type Date Time Source
KFET TAF UTC NOAA

Error!

Example: see airport list